Estación de Hornitos
Ultimos registro cada 15 minutos 53
| N° | Estación | Fecha / Hora | Temperatura | Humedad | Lluvia | Velocidad | Dirección | Radiación | Presion |
| 53 | Hornitos | 05-05-2026 13:00 | 28,2 | 12 | 0 | 0,9 | 277 | 155 | 1012,1 |
| 52 | Hornitos | 05-05-2026 12:45 | 28,5 | 11 | 0 | 0,9 | 15 | 237 | 1012,1 |
| 51 | Hornitos | 05-05-2026 12:30 | 27,8 | 13 | 0 | 1,8 | 314 | 309 | 1012,2 |
| 50 | Hornitos | 05-05-2026 12:15 | 27 | 18 | 0 | 0,9 | 343 | 320 | 1012,3 |
| 49 | Hornitos | 05-05-2026 12:00 | 26 | 20 | 0 | 0,9 | 27 | 56 | 1012,6 |
| 48 | Hornitos | 05-05-2026 11:45 | 25,5 | 17 | 0 | 0,9 | 60 | 188 | 1012,9 |
| 47 | Hornitos | 05-05-2026 11:30 | 24,6 | 19 | 0 | 0,4 | 322 | 327 | 1013 |
| 46 | Hornitos | 05-05-2026 11:15 | 23,5 | 26 | 0 | 0,4 | 346 | 605 | 1013,1 |
| 45 | Hornitos | 05-05-2026 11:00 | 22,7 | 30 | 0 | 0,4 | 68 | 577 | 1012,9 |
| 44 | Hornitos | 05-05-2026 10:45 | 21,7 | 33 | 0 | 0,9 | 47 | 529 | 1013,1 |
| 43 | Hornitos | 05-05-2026 10:30 | 20,8 | 38 | 0 | 0,9 | 71 | 362 | 1013,2 |
| 42 | Hornitos | 05-05-2026 10:15 | 19,8 | 42 | 0 | 0 | 10 | 461 | 1013,6 |
| 41 | Hornitos | 05-05-2026 10:00 | 18,4 | 52 | 0 | 0,4 | 114 | 445 | 1013,9 |
| 40 | Hornitos | 05-05-2026 09:45 | 17,2 | 59 | 0 | 0,4 | 78 | 417 | 1013,9 |
| 39 | Hornitos | 05-05-2026 09:30 | 15,7 | 65 | 0 | 0 | 75 | 339 | 1013,9 |
| 38 | Hornitos | 05-05-2026 09:15 | 14,1 | 72 | 0 | 0,4 | 163 | 330 | 1013,9 |
| 37 | Hornitos | 05-05-2026 09:00 | 12,5 | 76 | 0 | 0,4 | 169 | 292 | 1014 |
| 36 | Hornitos | 05-05-2026 08:45 | 10,8 | 82 | 0 | 0 | 60 | 250 | 1013,8 |
| 35 | Hornitos | 05-05-2026 08:30 | 9,3 | 85 | 0 | 0 | 186 | 236 | 1014,4 |
| 34 | Hornitos | 05-05-2026 08:15 | 7,3 | 81 | 0 | 0 | 25 | 163 | 1014,4 |
| 33 | Hornitos | 05-05-2026 08:00 | 6,4 | 78 | 0 | 0,4 | 64 | 32 | 1014,1 |
| 32 | Hornitos | 05-05-2026 07:45 | 5,9 | 78 | 0 | 0 | 237 | 26 | 1013,8 |
| 31 | Hornitos | 05-05-2026 07:30 | 5,7 | 77 | 0 | 0 | 237 | 23 | 1013,8 |
| 30 | Hornitos | 05-05-2026 07:15 | 5,3 | 76 | 0 | 0 | 237 | 12 | 1013,7 |
| 29 | Hornitos | 05-05-2026 07:00 | 5,2 | 74 | 0 | 0 | 237 | 0 | 1013,4 |
| 28 | Hornitos | 05-05-2026 06:45 | 5,4 | 74 | 0 | 0 | 237 | 0 | 1013,2 |
| 27 | Hornitos | 05-05-2026 06:30 | 5,5 | 73 | 0 | 0 | 237 | 0 | 1012,9 |
| 26 | Hornitos | 05-05-2026 06:15 | 5,6 | 73 | 0 | 0 | 237 | 0 | 1012,6 |
| 25 | Hornitos | 05-05-2026 06:00 | 5,7 | 73 | 0 | 0 | 237 | 0 | 1012,4 |
| 24 | Hornitos | 05-05-2026 05:45 | 5,8 | 73 | 0 | 0 | 239 | 0 | 1012,3 |
| 23 | Hornitos | 05-05-2026 05:30 | 6,1 | 72 | 0 | 0 | 239 | 0 | 1012,2 |
| 22 | Hornitos | 05-05-2026 05:15 | 6,4 | 72 | 0 | 0 | 239 | 0 | 1012,1 |
| 21 | Hornitos | 05-05-2026 05:00 | 6,7 | 71 | 0 | 0,4 | 239 | 0 | 1012,1 |
| 20 | Hornitos | 05-05-2026 04:45 | 7 | 72 | 0 | 0,4 | 239 | 0 | 1011,8 |
| 19 | Hornitos | 05-05-2026 04:30 | 6,9 | 71 | 0 | 0 | 239 | 0 | 1011,7 |
| 18 | Hornitos | 05-05-2026 04:15 | 7,5 | 71 | 0 | 0 | 239 | 0 | 1011,4 |
| 17 | Hornitos | 05-05-2026 04:00 | 8 | 71 | 0 | 0 | 239 | 0 | 1011,4 |
| 16 | Hornitos | 05-05-2026 03:45 | 8,2 | 72 | 0 | 0 | 239 | 0 | 1011,3 |
| 15 | Hornitos | 05-05-2026 03:30 | 7,9 | 70 | 0 | 0 | 243 | 0 | 1011,3 |
| 14 | Hornitos | 05-05-2026 03:15 | 8,1 | 70 | 0 | 0 | 243 | 0 | 1011,2 |
| 13 | Hornitos | 05-05-2026 03:00 | 8,1 | 70 | 0 | 0 | 243 | 0 | 1011,5 |
| 12 | Hornitos | 05-05-2026 02:45 | 8,2 | 69 | 0 | 0 | 246 | 0 | 1011,5 |
| 11 | Hornitos | 05-05-2026 02:30 | 8,4 | 69 | 0 | 0 | 246 | 0 | 1011,6 |
| 10 | Hornitos | 05-05-2026 02:15 | 8,6 | 68 | 0 | 0 | 246 | 0 | 1011,9 |
| 9 | Hornitos | 05-05-2026 02:00 | 8,9 | 69 | 0 | 0 | 246 | 0 | 1011,8 |
| 8 | Hornitos | 05-05-2026 01:45 | 9,1 | 70 | 0 | 0 | 246 | 0 | 1011,9 |
| 7 | Hornitos | 05-05-2026 01:30 | 8,8 | 69 | 0 | 0 | 240 | 0 | 1011,9 |
| 6 | Hornitos | 05-05-2026 01:15 | 8,8 | 70 | 0 | 0 | 240 | 0 | 1011,9 |
| 5 | Hornitos | 05-05-2026 01:00 | 8,9 | 69 | 0 | 0 | 243 | 0 | 1012,1 |
| 4 | Hornitos | 05-05-2026 00:45 | 9,2 | 69 | 0 | 0 | 243 | 0 | 1012,1 |
| 3 | Hornitos | 05-05-2026 00:30 | 9,3 | 68 | 0 | 0 | 243 | 0 | 1011,9 |
| 2 | Hornitos | 05-05-2026 00:15 | 9,5 | 69 | 0 | 0 | 243 | 0 | 1012,2 |
| 1 | Hornitos | 05-05-2026 00:00 | 9,7 | 69 | 0 | 0 | 243 | 0 | 1012,5 |